createdAt,value
2018-12-13T00:06:08.163Z,85.98
2018-12-13T00:16:27.230Z,86.39
2018-12-13T00:26:46.092Z,85.82
2018-12-13T00:37:04.608Z,85.75
2018-12-13T00:47:23.175Z,87.53
2018-12-13T00:57:42.673Z,87.07
2018-12-13T01:08:01.175Z,87.00
2018-12-13T01:18:19.892Z,87.14
2018-12-13T01:28:39.663Z,86.77
2018-12-13T01:38:58.684Z,86.36
2018-12-13T01:49:19.095Z,86.37
2018-12-13T01:59:38.171Z,86.76
2018-12-13T02:09:57.954Z,87.62
2018-12-13T02:20:17.776Z,87.25
2018-12-13T02:30:36.389Z,87.11
2018-12-13T02:40:55.451Z,86.85
2018-12-13T02:51:14.182Z,87.38
2018-12-13T03:01:33.089Z,87.50
2018-12-13T03:11:52.199Z,87.10
2018-12-13T03:22:11.299Z,86.98
2018-12-13T03:32:30.645Z,86.86
2018-12-13T03:42:49.204Z,87.00
2018-12-13T03:53:08.423Z,86.86
2018-12-13T04:03:27.964Z,86.94
2018-12-13T04:13:47.829Z,87.40
2018-12-13T04:24:06.071Z,87.95
2018-12-13T04:34:25.189Z,86.80
2018-12-13T04:44:44.778Z,86.73
2018-12-13T04:55:03.455Z,86.45
2018-12-13T05:05:21.920Z,86.41
2018-12-13T05:15:40.780Z,86.81
2018-12-13T05:25:59.902Z,86.56
2018-12-13T05:36:19.367Z,86.46
2018-12-13T05:46:38.473Z,86.21
2018-12-13T05:56:57.781Z,86.46
2018-12-13T06:07:19.732Z,86.49
2018-12-13T06:17:38.479Z,86.89
2018-12-13T06:27:56.667Z,87.09
2018-12-13T06:38:15.685Z,87.14
2018-12-13T06:48:34.900Z,86.82
2018-12-13T06:58:54.115Z,86.76
2018-12-13T07:09:13.239Z,86.17
2018-12-13T07:19:32.223Z,86.21
2018-12-13T07:29:50.847Z,85.68
2018-12-13T07:40:10.538Z,84.20
2018-12-13T07:50:29.021Z,84.10
2018-12-13T08:00:48.174Z,83.44
2018-12-13T08:11:06.587Z,82.35
2018-12-13T08:21:26.064Z,81.96
2018-12-13T08:31:45.052Z,82.40
2018-12-13T08:42:04.891Z,81.92
2018-12-13T08:52:24.448Z,83.88
2018-12-13T09:02:42.911Z,84.35
2018-12-13T09:13:01.798Z,83.98
2018-12-13T09:23:20.872Z,84.11
2018-12-13T09:33:40.637Z,83.84
2018-12-13T09:43:59.488Z,83.66
2018-12-13T09:54:18.220Z,83.39
2018-12-13T10:04:37.190Z,83.03
2018-12-13T10:14:56.497Z,82.92
2018-12-13T10:25:15.658Z,82.41
2018-12-13T10:35:35.219Z,81.04
2018-12-13T10:45:55.432Z,80.08
2018-12-13T10:56:14.481Z,80.75
2018-12-13T11:06:33.240Z,80.28
2018-12-13T11:16:52.158Z,79.58
2018-12-13T11:28:07.388Z,78.47
2018-12-13T11:38:26.610Z,77.53
2018-12-13T11:48:50.345Z,80.72
2018-12-13T11:59:09.012Z,80.92
2018-12-13T12:09:28.442Z,81.40
2018-12-13T12:19:49.015Z,81.95
2018-12-13T12:30:08.617Z,81.50
2018-12-13T12:40:27.392Z,81.03
2018-12-13T12:50:46.492Z,82.26
2018-12-13T13:01:05.342Z,83.59
2018-12-13T13:11:25.537Z,84.13
2018-12-13T13:21:45.522Z,83.63
2018-12-13T13:32:04.081Z,81.83
2018-12-13T13:42:22.674Z,82.58
2018-12-13T13:52:41.550Z,83.66
2018-12-13T14:02:59.689Z,83.02
2018-12-13T14:13:19.783Z,83.80
2018-12-13T14:23:48.931Z,84.21
2018-12-13T14:34:09.021Z,84.58
2018-12-13T14:44:36.457Z,85.85
2018-12-13T14:54:55.606Z,85.25
2018-12-13T15:05:14.319Z,85.52
2018-12-13T15:26:55.635Z,85.48
2018-12-13T15:37:15.137Z,85.22
2018-12-13T15:47:34.741Z,85.21
2018-12-13T15:57:53.693Z,85.42
2018-12-13T16:08:15.392Z,85.35
2018-12-13T16:18:34.684Z,84.81
2018-12-13T16:28:56.412Z,85.06
2018-12-13T16:39:16.613Z,85.21
2018-12-13T16:49:38.006Z,85.72
2018-12-13T16:59:57.505Z,86.15
2018-12-13T17:10:21.870Z,85.42
2018-12-13T17:20:41.063Z,85.38
2018-12-13T17:31:01.058Z,85.73
2018-12-13T17:41:20.899Z,85.51
2018-12-13T17:51:43.114Z,85.50
2018-12-13T18:02:05.319Z,85.56
2018-12-13T18:12:25.148Z,85.58
2018-12-13T18:22:45.698Z,85.64
2018-12-13T18:33:06.926Z,85.57
2018-12-13T18:43:27.595Z,85.37
2018-12-13T18:53:47.704Z,85.34
2018-12-13T19:04:07.606Z,85.30
2018-12-13T19:14:28.076Z,85.17
2018-12-13T19:24:51.200Z,85.16
2018-12-13T19:35:11.147Z,85.53
2018-12-13T19:45:32.279Z,85.35
2018-12-13T19:55:52.777Z,85.31
2018-12-13T20:06:16.500Z,85.48
2018-12-13T20:16:39.618Z,85.51
2018-12-13T20:27:00.014Z,85.49
2018-12-13T20:37:19.833Z,85.63
2018-12-13T20:47:39.280Z,85.56
2018-12-13T20:57:58.913Z,85.31
2018-12-13T21:08:19.226Z,85.53
2018-12-13T21:19:05.370Z,85.58
2018-12-13T21:29:27.576Z,85.57
2018-12-13T21:39:49.137Z,85.83
2018-12-13T21:50:10.862Z,85.87
2018-12-13T22:00:31.396Z,85.99
2018-12-13T22:10:51.082Z,86.12
2018-12-13T22:21:12.654Z,86.33
2018-12-13T22:31:31.650Z,85.92
2018-12-13T22:41:50.891Z,85.89
2018-12-13T22:52:12.872Z,86.09
2018-12-13T23:02:31.342Z,86.14
2018-12-13T23:12:50.407Z,86.11
2018-12-13T23:23:09.907Z,85.82
2018-12-13T23:33:29.328Z,85.59
2018-12-13T23:43:49.022Z,85.50
2018-12-13T23:54:07.972Z,85.79
